Time;durP1;ratioP1;P1;durP2;ratioP2;P2;SDS_P1;SDS_P2;PMS_P1;PMS_P2;Temp;Humidity;BMP_temperature;BMP_pressure;BME280_temperature;BME280_humidity;BME280_pressure;Samples;Min_cycle;Max_cycle;Signal;HPM_P1;HPM_P2
2023/11/20 00:01:48;;;;;;;3.17;1.43;;;10.90;25.60;;;;;;4995758;28;20184;-68
2023/11/20 00:04:14;;;;;;;4.23;1.50;;;10.80;27.30;;;;;;5013261;28;20196;-70
2023/11/20 00:06:39;;;;;;;4.07;1.90;;;10.80;28.30;;;;;;5013566;28;20718;-69
2023/11/20 00:09:07;;;;;;;4.00;1.40;;;10.70;29.30;;;;;;5013422;28;20219;-69
2023/11/20 00:11:33;;;;;;;4.63;1.30;;;10.60;31.50;;;;;;5014304;28;20200;-69
2023/11/20 00:13:58;;;;;;;4.50;1.80;;;10.60;32.00;;;;;;5013513;28;20450;-68
2023/11/20 00:16:24;;;;;;;6.83;1.70;;;10.60;35.20;;;;;;5013470;28;20175;-68
2023/11/20 00:18:50;;;;;;;3.80;1.70;;;10.50;36.60;;;;;;5012978;28;20555;-67
2023/11/20 00:21:16;;;;;;;5.27;2.70;;;10.50;37.50;;;;;;5012941;28;20525;-67
2023/11/20 00:23:41;;;;;;;6.13;2.00;;;10.50;38.60;;;;;;4994988;28;20430;-68
2023/11/20 00:26:11;;;;;;;6.33;1.50;;;10.50;40.40;;;;;;5012990;28;20323;-68
2023/11/20 00:28:36;;;;;;;6.03;1.87;;;10.40;39.90;;;;;;5012766;28;20236;-69
2023/11/20 00:31:02;;;;;;;6.53;2.23;;;10.40;41.60;;;;;;5012851;28;20498;-68
2023/11/20 00:33:27;;;;;;;3.00;1.50;;;10.30;41.60;;;;;;4994986;28;20208;-68
2023/11/20 00:35:53;;;;;;;9.40;2.00;;;10.30;42.70;;;;;;5012634;28;20180;-67
2023/11/20 00:38:18;;;;;;;2.37;1.10;;;10.20;43.20;;;;;;5012510;28;20302;-70
2023/11/20 00:40:44;;;;;;;5.57;2.00;;;10.30;44.20;;;;;;5012559;28;20265;-67
2023/11/20 00:43:09;;;;;;;9.17;1.93;;;10.40;43.70;;;;;;5012221;28;20663;-70
2023/11/20 00:45:35;;;;;;;4.60;1.67;;;10.30;43.20;;;;;;5012613;28;20176;-67
2023/11/20 00:48:00;;;;;;;5.37;1.70;;;10.20;44.80;;;;;;5012288;28;20207;-67
2023/11/20 00:50:26;;;;;;;6.90;1.60;;;10.30;45.00;;;;;;5012248;28;20199;-68
2023/11/20 00:52:51;;;;;;;4.00;2.10;;;10.20;44.40;;;;;;5012343;28;20549;-67
2023/11/20 00:55:17;;;;;;;8.03;1.50;;;10.10;44.30;;;;;;5011985;28;20222;-68
2023/11/20 00:57:43;;;;;;;5.00;3.10;;;10.10;45.10;;;;;;4994416;28;20552;-68
2023/11/20 01:00:11;;;;;;;3.60;1.20;;;10.00;45.20;;;;;;5012123;28;20169;-68
2023/11/20 01:02:37;;;;;;;5.83;1.93;;;9.90;45.60;;;;;;5011866;28;20176;-67
2023/11/20 01:05:03;;;;;;;2.10;1.20;;;9.90;45.80;;;;;;5011362;28;20438;-68
2023/11/20 01:07:29;;;;;;;3.70;1.70;;;9.90;47.20;;;;;;5011300;28;20850;-70
2023/11/20 01:09:54;;;;;;;4.33;2.50;;;9.90;46.20;;;;;;5011918;28;20176;-68
2023/11/20 01:12:20;;;;;;;4.60;1.57;;;9.90;45.80;;;;;;5010620;28;20228;-68
2023/11/20 01:14:45;;;;;;;5.33;2.20;;;9.90;45.80;;;;;;4993378;28;20542;-68
2023/11/20 01:17:11;;;;;;;2.37;1.13;;;9.90;46.30;;;;;;5012129;28;20255;-68
2023/11/20 01:19:37;;;;;;;4.73;1.70;;;9.80;45.30;;;;;;5012083;28;20179;-68
2023/11/20 01:22:02;;;;;;;2.67;1.50;;;9.70;45.90;;;;;;4994565;28;20560;-69
2023/11/20 01:24:28;;;;;;;8.83;2.20;;;9.60;46.00;;;;;;5011829;28;20707;-68
2023/11/20 01:26:56;;;;;;;2.10;1.30;;;9.50;46.60;;;;;;5012108;28;20311;-68
2023/11/20 01:29:22;;;;;;;3.40;1.40;;;9.40;47.50;;;;;;5011980;28;20438;-69
2023/11/20 01:31:47;;;;;;;3.67;1.73;;;9.30;49.60;;;;;;5011994;28;20870;-68
2023/11/20 01:34:13;;;;;;;4.20;1.83;;;9.30;50.60;;;;;;4994285;28;20421;-67
2023/11/20 01:36:38;;;;;;;2.73;1.20;;;9.40;51.80;;;;;;5011536;28;20211;-67
2023/11/20 01:39:04;;;;;;;3.33;1.90;;;9.30;52.40;;;;;;5010159;28;20298;-67
2023/11/20 01:41:31;;;;;;;4.13;1.30;;;9.40;51.80;;;;;;5010847;28;20231;-67
2023/11/20 01:43:57;;;;;;;5.90;1.87;;;9.40;51.80;;;;;;5015514;28;20454;-67
2023/11/20 01:46:26;;;;;;;7.67;1.80;;;9.30;51.70;;;;;;5015586;28;20568;-67
2023/11/20 01:48:52;;;;;;;6.00;1.80;;;9.30;51.60;;;;;;5015451;28;20608;-68
2023/11/20 01:51:18;;;;;;;15.20;2.40;;;9.40;50.20;;;;;;5015356;28;20475;-68
2023/11/20 01:53:44;;;;;;;4.47;1.70;;;9.40;49.40;;;;;;5015268;28;20557;-68
2023/11/20 01:56:12;;;;;;;3.13;1.10;;;9.40;48.40;;;;;;5015408;28;20630;-68
2023/11/20 01:58:38;;;;;;;3.77;1.53;;;9.40;48.10;;;;;;5015287;28;20433;-67
2023/11/20 02:01:04;;;;;;;3.10;1.40;;;9.30;47.60;;;;;;5015296;28;20415;-68
2023/11/20 02:03:30;;;;;;;3.43;1.57;;;9.20;48.00;;;;;;5015099;28;20215;-67
2023/11/20 02:05:56;;;;;;;4.70;1.50;;;9.20;47.20;;;;;;5015256;28;20410;-68
2023/11/20 02:08:23;;;;;;;2.43;2.03;;;9.10;47.30;;;;;;5013734;28;20454;-67
2023/11/20 02:10:48;;;;;;;4.33;1.67;;;9.10;49.00;;;;;;5015070;28;20574;-67
2023/11/20 02:13:15;;;;;;;2.43;1.53;;;9.10;51.40;;;;;;5013626;28;20423;-68
2023/11/20 02:15:41;;;;;;;2.67;1.43;;;9.30;50.00;;;;;;5015079;28;20198;-67
2023/11/20 02:18:27;;;;;;;2.20;1.40;;;9.30;48.30;;;;;;5015042;28;20526;-67
2023/11/20 02:20:52;;;;;;;2.97;1.73;;;9.40;46.70;;;;;;5014951;28;20448;-68
2023/11/20 02:23:18;;;;;;;2.57;1.00;;;9.50;45.60;;;;;;5014803;28;20508;-67
2023/11/20 02:25:44;;;;;;;4.13;1.90;;;9.40;46.50;;;;;;5014906;28;20260;-67
2023/11/20 02:28:21;;;;;;;2.30;1.00;;;9.40;45.20;;;;;;5014639;28;20215;-67
2023/11/20 02:30:47;;;;;;;5.10;1.20;;;9.40;46.40;;;;;;4997094;28;20458;-68
2023/11/20 02:33:12;;;;;;;5.13;1.83;;;9.40;45.80;;;;;;5014379;28;20433;-68
2023/11/20 02:35:38;;;;;;;4.80;1.67;;;9.40;46.20;;;;;;5014557;28;20480;-67
2023/11/20 02:38:03;;;;;;;3.10;1.30;;;9.40;45.80;;;;;;5013322;28;20262;-67
2023/11/20 02:40:29;;;;;;;4.53;1.50;;;9.50;47.40;;;;;;5014593;28;20556;-67
2023/11/20 02:42:55;;;;;;;3.73;1.20;;;9.60;46.10;;;;;;5014579;28;20599;-67
2023/11/20 02:45:20;;;;;;;2.53;1.50;;;9.70;46.20;;;;;;5014353;28;20180;-67
2023/11/20 02:47:46;;;;;;;3.17;2.23;;;9.70;44.40;;;;;;5014336;28;20882;-67
2023/11/20 02:50:11;;;;;;;7.03;3.00;;;9.80;43.00;;;;;;5014354;28;20640;-67
2023/11/20 02:52:37;;;;;;;4.47;1.60;;;9.90;42.20;;;;;;5014034;28;20204;-68
2023/11/20 02:55:03;;;;;;;3.10;1.70;;;10.00;41.10;;;;;;5014107;28;20270;-67
2023/11/20 02:57:28;;;;;;;5.33;1.50;;;10.10;39.30;;;;;;5014166;28;20196;-68
2023/11/20 02:59:54;;;;;;;4.93;1.13;;;10.10;39.60;;;;;;5012986;28;20183;-67
2023/11/20 03:02:19;;;;;;;2.27;1.27;;;10.10;38.00;;;;;;5014585;28;20582;-67
2023/11/20 03:04:45;;;;;;;6.23;1.93;;;10.20;36.00;;;;;;4996288;28;20219;-67
2023/11/20 03:07:11;;;;;;;5.00;2.00;;;10.20;35.90;;;;;;4996397;28;20182;-68
2023/11/20 03:09:36;;;;;;;4.70;1.97;;;10.10;35.40;;;;;;4996364;28;20187;-68
2023/11/20 03:12:03;;;;;;;4.07;1.40;;;10.10;36.20;;;;;;5013893;28;20219;-67
2023/11/20 03:14:29;;;;;;;3.30;2.00;;;10.10;35.50;;;;;;5013805;28;20180;-67
2023/11/20 03:16:54;;;;;;;3.67;1.50;;;10.10;36.40;;;;;;4996211;28;20776;-67
2023/11/20 03:19:20;;;;;;;6.20;1.67;;;10.20;35.10;;;;;;5013740;28;20668;-67
2023/11/20 03:21:45;;;;;;;3.20;1.80;;;10.20;35.60;;;;;;5013826;28;20190;-68
2023/11/20 03:24:11;;;;;;;4.00;2.47;;;10.20;34.90;;;;;;5013547;28;20259;-68
2023/11/20 03:26:37;;;;;;;4.33;1.47;;;10.20;34.20;;;;;;5013758;28;20191;-67
2023/11/20 03:29:03;;;;;;;4.53;1.40;;;10.20;33.80;;;;;;5013813;28;20750;-68
2023/11/20 03:31:36;;;;;;;4.23;1.97;;;10.20;33.00;;;;;;5013457;28;20203;-67
2023/11/20 03:34:03;;;;;;;7.47;1.73;;;10.20;32.20;;;;;;5013596;28;20425;-67
2023/11/20 03:36:31;;;;;;;5.60;2.00;;;10.20;32.60;;;;;;5013400;28;20427;-67
2023/11/20 03:38:57;;;;;;;4.70;1.70;;;10.20;31.10;;;;;;5050785;23;20516;-72
2023/11/20 03:41:23;;;;;;;2.70;1.63;;;10.20;31.10;;;;;;5015491;28;20430;-71
2023/11/20 03:43:49;;;;;;;3.87;2.10;;;10.20;32.20;;;;;;5033113;28;20444;-72
2023/11/20 03:46:15;;;;;;;4.10;2.20;;;10.20;32.20;;;;;;5033088;28;20175;-71
2023/11/20 03:48:40;;;;;;;3.53;1.60;;;10.10;33.60;;;;;;5022140;28;20434;-72
2023/11/20 03:51:06;;;;;;;3.60;1.60;;;10.10;34.60;;;;;;5013537;28;20627;-72
2023/11/20 03:53:32;;;;;;;5.37;1.20;;;10.20;34.70;;;;;;5012997;28;20172;-72
2023/11/20 03:55:57;;;;;;;3.60;1.50;;;10.20;35.00;;;;;;5013378;28;20175;-72
2023/11/20 03:58:23;;;;;;;2.83;1.30;;;10.20;34.60;;;;;;5013155;28;20950;-72
2023/11/20 04:00:48;;;;;;;7.33;2.23;;;10.00;35.50;;;;;;5013117;28;20543;-72
2023/11/20 04:03:14;;;;;;;2.90;1.40;;;9.90;36.90;;;;;;5012926;28;20862;-72
2023/11/20 04:05:41;;;;;;;4.33;1.53;;;9.90;36.60;;;;;;4995023;28;20190;-72
2023/11/20 04:08:07;;;;;;;4.50;1.30;;;9.90;37.00;;;;;;4995319;28;20227;-71
2023/11/20 04:10:32;;;;;;;4.53;1.50;;;10.00;37.40;;;;;;4995236;28;20458;-72
2023/11/20 04:12:58;;;;;;;3.27;1.60;;;10.10;35.90;;;;;;5012787;28;20303;-72
2023/11/20 04:15:24;;;;;;;2.97;1.30;;;10.10;35.80;;;;;;5009385;28;20228;-72
2023/11/20 04:17:49;;;;;;;4.80;2.47;;;10.10;35.20;;;;;;5012552;28;20450;-72
2023/11/20 04:20:15;;;;;;;3.13;1.17;;;10.10;35.40;;;;;;5012920;28;20172;-71
2023/11/20 04:22:41;;;;;;;3.70;1.63;;;10.20;36.30;;;;;;5012744;28;20291;-72
2023/11/20 04:25:06;;;;;;;3.97;1.60;;;10.20;34.50;;;;;;5012614;28;20583;-72
2023/11/20 04:27:32;;;;;;;5.47;1.43;;;10.30;34.30;;;;;;4995026;28;20180;-72
2023/11/20 04:29:58;;;;;;;4.27;1.60;;;10.20;32.30;;;;;;5012782;28;20179;-73
2023/11/20 04:32:23;;;;;;;3.37;1.60;;;10.10;32.90;;;;;;5012553;28;20223;-73
2023/11/20 04:34:49;;;;;;;2.80;1.37;;;10.10;32.90;;;;;;5012703;28;20536;-72
2023/11/20 04:37:14;;;;;;;4.90;1.50;;;10.20;33.80;;;;;;5012749;28;20187;-72
2023/11/20 04:39:40;;;;;;;6.10;1.30;;;10.10;31.60;;;;;;5012491;28;20273;-73
2023/11/20 04:42:06;;;;;;;3.43;1.73;;;10.20;32.80;;;;;;5012659;28;20184;-73
2023/11/20 04:44:31;;;;;;;5.97;1.40;;;10.20;32.40;;;;;;5012548;28;20190;-73
2023/11/20 04:46:57;;;;;;;5.23;1.40;;;10.20;31.20;;;;;;5012856;28;20430;-72
2023/11/20 04:49:22;;;;;;;4.70;1.53;;;10.20;32.50;;;;;;4994771;28;20334;-72
2023/11/20 04:51:48;;;;;;;3.80;1.60;;;10.20;31.20;;;;;;5012468;28;20235;-72
2023/11/20 04:54:14;;;;;;;3.43;1.80;;;10.10;32.40;;;;;;4994723;28;20179;-73
2023/11/20 04:56:39;;;;;;;5.40;2.00;;;10.10;32.00;;;;;;4994913;28;20227;-73
2023/11/20 04:59:05;;;;;;;3.93;1.60;;;10.10;31.10;;;;;;4994662;28;20790;-72
2023/11/20 05:01:32;;;;;;;4.43;1.93;;;10.00;31.00;;;;;;5012326;28;20271;-72
2023/11/20 05:03:58;;;;;;;3.30;1.43;;;10.10;31.10;;;;;;4994653;28;20180;-73
2023/11/20 05:06:23;;;;;;;8.43;1.30;;;10.00;31.00;;;;;;4994753;28;20435;-73
2023/11/20 05:08:49;;;;;;;6.57;2.30;;;10.00;31.80;;;;;;5012309;28;20497;-72
2023/11/20 05:11:15;;;;;;;4.27;1.77;;;10.00;32.20;;;;;;5012254;28;20199;-72
2023/11/20 05:13:41;;;;;;;7.70;1.93;;;10.10;31.20;;;;;;4994191;28;20187;-72
2023/11/20 05:16:07;;;;;;;8.13;1.97;;;10.00;31.10;;;;;;5012313;28;20172;-72
2023/11/20 05:18:33;;;;;;;4.87;1.73;;;10.00;31.70;;;;;;5011930;28;20434;-72
2023/11/20 05:20:58;;;;;;;7.43;1.93;;;10.00;32.10;;;;;;5011923;28;20184;-71
2023/11/20 05:23:24;;;;;;;6.27;2.20;;;10.00;31.70;;;;;;5011718;28;20238;-72
2023/11/20 05:25:49;;;;;;;4.23;2.37;;;10.00;32.30;;;;;;5025594;28;20183;-72
2023/11/20 05:28:15;;;;;;;3.10;1.50;;;10.00;32.00;;;;;;5031039;28;20202;-72
2023/11/20 05:30:41;;;;;;;4.00;1.93;;;9.90;33.20;;;;;;5013943;28;20656;-72
2023/11/20 05:33:06;;;;;;;2.83;1.60;;;10.00;31.60;;;;;;5031212;28;20176;-71
2023/11/20 05:35:33;;;;;;;7.83;2.00;;;10.00;32.00;;;;;;5013951;28;20512;-72
2023/11/20 05:37:58;;;;;;;4.63;1.60;;;10.00;32.90;;;;;;5031395;28;20214;-72
2023/11/20 05:40:24;;;;;;;8.70;2.87;;;10.00;31.00;;;;;;5013658;28;20416;-72
2023/11/20 05:42:50;;;;;;;4.47;1.50;;;10.00;31.90;;;;;;5031391;28;20330;-72
2023/11/20 05:45:16;;;;;;;3.50;1.20;;;10.10;31.10;;;;;;5013624;28;20187;-73
2023/11/20 05:47:41;;;;;;;4.60;1.77;;;10.00;30.90;;;;;;5031440;28;20444;-71
2023/11/20 05:50:07;;;;;;;4.13;1.47;;;10.10;31.10;;;;;;5026268;28;20555;-71
2023/11/20 05:52:33;;;;;;;4.67;1.90;;;10.10;30.00;;;;;;5011504;28;20329;-71
2023/11/20 05:54:59;;;;;;;5.90;1.57;;;10.10;30.20;;;;;;5011549;28;20414;-71
2023/11/20 05:57:25;;;;;;;8.23;2.20;;;10.00;29.10;;;;;;5011399;28;20439;-71
2023/11/20 05:59:50;;;;;;;4.20;2.33;;;9.90;29.00;;;;;;5011618;28;20540;-71
2023/11/20 06:02:16;;;;;;;8.77;2.87;;;9.80;31.70;;;;;;5011583;28;20652;-71
2023/11/20 06:04:42;;;;;;;4.03;1.70;;;9.70;31.70;;;;;;5011247;28;20176;-71
2023/11/20 06:07:07;;;;;;;7.57;1.90;;;9.50;31.60;;;;;;5011531;28;20263;-71
2023/11/20 06:09:33;;;;;;;4.17;1.93;;;9.40;32.50;;;;;;5011211;28;20235;-71
2023/11/20 06:11:58;;;;;;;5.37;2.47;;;9.40;33.50;;;;;;5011393;28;20513;-72
2023/11/20 06:14:24;;;;;;;5.13;2.10;;;9.30;33.10;;;;;;5011543;28;20190;-72
2023/11/20 06:16:50;;;;;;;6.37;1.87;;;9.20;34.90;;;;;;5011383;28;20266;-72
2023/11/20 06:19:15;;;;;;;8.80;2.10;;;9.10;34.30;;;;;;5011202;28;20199;-72
2023/11/20 06:21:49;;;;;;;6.13;2.33;;;9.10;34.70;;;;;;5010182;28;20254;-71
2023/11/20 06:24:15;;;;;;;8.63;2.50;;;9.10;34.20;;;;;;5011074;28;20298;-71
2023/11/20 06:26:41;;;;;;;14.97;2.13;;;9.10;33.40;;;;;;5011166;28;20517;-71
2023/11/20 06:29:07;;;;;;;6.33;2.93;;;9.10;34.30;;;;;;5013898;28;21058;-73
2023/11/20 06:31:33;;;;;;;8.03;1.80;;;9.20;33.10;;;;;;5014465;28;20466;-73
2023/11/20 06:33:58;;;;;;;9.30;1.50;;;9.20;33.40;;;;;;4996702;28;20489;-73
2023/11/20 06:36:24;;;;;;;5.33;2.03;;;9.20;32.90;;;;;;4997166;28;20630;-73
2023/11/20 06:38:49;;;;;;;5.60;2.03;;;9.20;32.60;;;;;;5014550;28;20221;-73
2023/11/20 06:41:19;;;;;;;4.80;1.80;;;9.30;32.90;;;;;;5014800;28;20184;-70
2023/11/20 06:43:45;;;;;;;4.40;2.47;;;9.30;32.00;;;;;;4996516;28;20275;-72
2023/11/20 06:46:23;;;;;;;4.40;2.20;;;9.30;31.30;;;;;;5014340;28;20506;-70
2023/11/20 06:48:49;;;;;;;4.23;2.00;;;9.40;31.50;;;;;;4996621;28;20450;-71
2023/11/20 06:51:16;;;;;;;3.50;1.60;;;9.50;31.50;;;;;;5014458;28;20454;-70
2023/11/20 06:53:43;;;;;;;4.10;2.60;;;9.60;31.10;;;;;;5014114;28;20198;-71
2023/11/20 06:56:35;;;;;;;5.57;1.73;;;9.60;31.60;;;;;;5014701;28;20424;-70
2023/11/20 06:59:01;;;;;;;4.27;1.57;;;9.70;29.70;;;;;;4994284;28;20457;-70
2023/11/20 07:01:26;;;;;;;4.03;1.83;;;9.80;30.00;;;;;;5014614;28;20423;-71
2023/11/20 07:03:53;;;;;;;7.63;2.60;;;9.80;29.60;;;;;;5012659;28;20184;-70
2023/11/20 07:06:19;;;;;;;3.00;2.10;;;9.80;29.50;;;;;;5014109;28;20180;-71
2023/11/20 07:08:44;;;;;;;4.80;2.23;;;9.90;29.30;;;;;;4996418;28;20458;-71
2023/11/20 07:11:10;;;;;;;4.60;1.80;;;9.90;29.00;;;;;;5013968;28;20223;-70
2023/11/20 07:13:36;;;;;;;2.60;1.90;;;9.90;30.00;;;;;;5013802;28;20183;-71
2023/11/20 07:16:02;;;;;;;6.77;2.00;;;10.00;28.10;;;;;;5014038;28;20176;-71
2023/11/20 07:18:28;;;;;;;5.23;1.80;;;9.90;28.00;;;;;;5013845;28;20188;-71
2023/11/20 07:20:54;;;;;;;5.27;1.97;;;9.90;26.80;;;;;;5013878;28;20430;-71
2023/11/20 07:23:20;;;;;;;4.30;1.57;;;9.90;27.30;;;;;;5013689;28;20188;-69
2023/11/20 07:25:46;;;;;;;6.97;2.00;;;9.90;26.50;;;;;;5013876;28;20430;-70
2023/11/20 07:28:11;;;;;;;4.47;1.27;;;10.00;23.20;;;;;;5013948;28;20199;-70
2023/11/20 07:30:37;;;;;;;3.10;1.27;;;10.10;23.70;;;;;;5012388;28;20188;-70
2023/11/20 07:33:03;;;;;;;4.73;1.77;;;10.10;20.70;;;;;;5013474;28;20233;-70
2023/11/20 07:35:28;;;;;;;10.63;1.93;;;10.20;21.10;;;;;;5013493;28;20176;-70
2023/11/20 07:37:55;;;;;;;3.73;1.77;;;10.30;20.10;;;;;;4995848;28;20219;-70
2023/11/20 07:40:21;;;;;;;4.43;2.70;;;10.30;19.10;;;;;;4995142;28;20753;-70
2023/11/20 07:42:47;;;;;;;3.77;1.80;;;10.30;17.60;;;;;;5013877;28;20497;-69
2023/11/20 07:45:13;;;;;;;4.90;2.00;;;10.30;18.60;;;;;;5009795;28;20580;-74
2023/11/20 07:47:39;;;;;;;6.23;2.53;;;10.40;16.80;;;;;;5013124;28;20456;-70
2023/11/20 07:50:06;;;;;;;3.93;1.90;;;10.40;16.20;;;;;;5011897;28;20426;-70
2023/11/20 07:52:32;;;;;;;18.80;2.83;;;10.40;17.30;;;;;;5012615;28;20474;-71
2023/11/20 07:54:57;;;;;;;3.40;1.70;;;10.40;16.10;;;;;;5013035;28;20427;-71
2023/11/20 07:57:24;;;;;;;3.53;1.67;;;10.60;16.30;;;;;;5013568;28;20487;-70
2023/11/20 07:59:52;;;;;;;5.90;2.00;;;10.70;14.50;;;;;;5014343;28;20191;-72
2023/11/20 08:02:19;;;;;;;4.90;1.60;;;10.60;13.90;;;;;;5013813;28;20434;-71
2023/11/20 08:04:45;;;;;;;4.53;1.83;;;10.60;15.10;;;;;;5013350;28;20996;-71
2023/11/20 08:07:13;;;;;;;4.97;2.07;;;10.70;14.50;;;;;;4996869;28;20434;-71
2023/11/20 08:09:39;;;;;;;2.70;2.07;;;10.70;13.30;;;;;;4995410;28;20458;-70
2023/11/20 08:12:05;;;;;;;5.90;2.43;;;10.80;13.40;;;;;;5012832;28;20842;-70
2023/11/20 08:14:31;;;;;;;6.23;2.10;;;10.80;13.10;;;;;;5012953;28;20777;-71
2023/11/20 08:16:58;;;;;;;8.77;2.03;;;10.90;12.70;;;;;;4995757;28;20432;-70
2023/11/20 08:19:24;;;;;;;6.13;2.63;;;11.00;11.00;;;;;;4995414;28;20459;-70
2023/11/20 08:21:50;;;;;;;5.90;1.90;;;11.10;11.40;;;;;;5013773;28;20419;-71
2023/11/20 08:24:16;;;;;;;5.67;2.40;;;11.10;10.10;;;;;;5010178;28;20426;-70
2023/11/20 08:26:44;;;;;;;4.33;1.83;;;11.30;10.60;;;;;;5013080;28;20428;-70
2023/11/20 08:29:16;;;;;;;6.17;2.10;;;11.40;10.40;;;;;;5012717;28;20214;-70
2023/11/20 08:31:44;;;;;;;4.37;2.00;;;11.40;9.00;;;;;;4995020;28;20471;-71
2023/11/20 08:34:10;;;;;;;6.53;2.50;;;11.30;7.80;;;;;;5012633;28;20420;-72
2023/11/20 08:36:36;;;;;;;4.33;2.13;;;11.50;9.50;;;;;;5012798;28;20417;-71
2023/11/20 08:39:05;;;;;;;4.60;1.90;;;11.40;7.30;;;;;;5012466;28;20460;-72
2023/11/20 08:41:31;;;;;;;11.87;2.70;;;11.40;6.90;;;;;;5011731;28;20458;-71
2023/11/20 08:43:57;;;;;;;5.10;1.70;;;11.40;6.80;;;;;;5012286;28;20802;-70
2023/11/20 08:46:23;;;;;;;7.40;2.73;;;11.50;6.20;;;;;;4994526;28;20461;-70
2023/11/20 08:48:48;;;;;;;3.20;1.63;;;11.60;6.30;;;;;;5012336;28;20479;-71
2023/11/20 08:51:17;;;;;;;6.37;2.27;;;11.60;6.00;;;;;;5012072;28;20241;-71
2023/11/20 08:53:42;;;;;;;7.37;2.30;;;11.60;4.10;;;;;;4994643;28;20647;-71
2023/11/20 08:56:09;;;;;;;4.30;2.87;;;11.60;3.70;;;;;;5012478;28;20411;-70
2023/11/20 08:58:36;;;;;;;3.93;2.23;;;11.70;4.70;;;;;;4994477;28;20694;-70
2023/11/20 09:01:01;;;;;;;3.23;1.67;;;11.60;3.70;;;;;;5012497;28;20452;-70
2023/11/20 09:03:27;;;;;;;7.20;2.33;;;11.60;3.80;;;;;;5012138;28;20409;-71
2023/11/20 09:05:52;;;;;;;7.23;2.50;;;11.50;2.80;;;;;;5012505;28;20562;-71
2023/11/20 09:08:18;;;;;;;12.63;2.60;;;11.50;3.30;;;;;;5011999;28;20974;-71
2023/11/20 09:10:46;;;;;;;4.57;2.47;;;11.50;2.90;;;;;;5012162;28;20215;-72
2023/11/20 09:13:12;;;;;;;3.50;2.00;;;11.70;2.90;;;;;;4994370;28;20180;-72
2023/11/20 09:15:38;;;;;;;5.97;1.70;;;11.80;1.90;;;;;;5012178;28;20419;-70
2023/11/20 09:18:04;;;;;;;13.50;3.10;;;11.90;1.90;;;;;;5011800;28;20207;-70
2023/11/20 09:20:30;;;;;;;6.83;1.67;;;11.90;1.60;;;;;;5012081;28;20992;-70
2023/11/20 09:22:56;;;;;;;5.73;2.10;;;12.00;2.10;;;;;;5011814;28;20808;-70
2023/11/20 09:25:22;;;;;;;6.07;2.33;;;11.90;1.00;;;;;;5012059;28;20436;-70
2023/11/20 09:27:48;;;;;;;5.93;2.03;;;11.90;2.00;;;;;;5011730;28;20778;-71
2023/11/20 09:30:16;;;;;;;6.43;2.10;;;11.90;1.00;;;;;;4994255;28;20419;-71
2023/11/20 09:32:44;;;;;;;3.60;1.83;;;11.80;1.00;;;;;;4994182;28;20216;-71
2023/11/20 09:35:10;;;;;;;6.30;2.33;;;11.70;1.00;;;;;;5011892;28;20409;-71
2023/11/20 09:37:36;;;;;;;11.93;2.30;;;11.60;1.00;;;;;;4993979;28;20935;-70
2023/11/20 09:40:04;;;;;;;5.60;2.33;;;11.40;1.30;;;;;;5012471;28;20433;-70
2023/11/20 09:42:31;;;;;;;6.47;1.90;;;11.30;1.60;;;;;;5012043;28;20431;-70
2023/11/20 09:45:00;;;;;;;6.63;2.20;;;11.20;1.50;;;;;;5011959;28;20851;-70
2023/11/20 09:47:29;;;;;;;7.60;2.67;;;11.20;2.60;;;;;;5011684;28;20429;-71
2023/11/20 09:49:58;;;;;;;4.53;1.57;;;11.20;1.50;;;;;;5012071;28;20443;-73
2023/11/20 09:52:25;;;;;;;5.27;2.03;;;11.30;2.20;;;;;;5012028;28;20472;-72
2023/11/20 09:54:55;;;;;;;7.33;2.17;;;11.50;2.10;;;;;;5010517;28;20505;-71
2023/11/20 09:57:25;;;;;;;6.93;2.17;;;11.60;1.00;;;;;;5011827;28;20928;-70
2023/11/20 09:59:50;;;;;;;5.03;3.07;;;11.60;1.00;;;;;;5011727;28;20419;-71
2023/11/20 10:02:18;;;;;;;6.83;2.67;;;11.70;1.00;;;;;;5012548;28;20907;-71
2023/11/20 10:04:46;;;;;;;4.80;2.33;;;12.00;1.00;;;;;;5015924;28;20404;-72
2023/11/20 10:07:18;;;;;;;5.07;2.07;;;12.10;1.00;;;;;;5015868;28;20421;-71
2023/11/20 10:09:51;;;;;;;6.00;2.57;;;12.00;1.00;;;;;;5015551;28;20450;-72
2023/11/20 10:12:18;;;;;;;4.73;2.83;;;12.10;1.00;;;;;;5015995;28;20886;-72
2023/11/20 10:14:48;;;;;;;10.17;2.30;;;12.30;1.00;;;;;;5015637;28;20409;-71
2023/11/20 10:17:15;;;;;;;4.70;1.90;;;12.40;1.00;;;;;;5015801;28;20420;-70
2023/11/20 10:19:40;;;;;;;8.50;2.07;;;12.20;1.00;;;;;;4997467;28;20523;-72
2023/11/20 10:22:06;;;;;;;8.33;2.70;;;12.10;1.00;;;;;;5015226;28;20512;-71
2023/11/20 10:24:31;;;;;;;5.10;2.67;;;12.00;1.00;;;;;;5015188;28;20183;-72
2023/11/20 10:26:57;;;;;;;3.63;1.83;;;11.90;1.00;;;;;;4994112;28;20739;-72
2023/11/20 10:29:23;;;;;;;7.17;2.43;;;11.90;1.00;;;;;;4995710;28;20207;-71
2023/11/20 10:31:49;;;;;;;3.93;1.90;;;11.90;1.00;;;;;;4995918;28;20743;-70
2023/11/20 10:34:17;;;;;;;5.53;2.10;;;12.10;1.00;;;;;;5000847;28;20418;-71
2023/11/20 10:37:04;;;;;;;4.77;2.20;;;12.20;1.00;;;;;;5016553;28;20431;-71
2023/11/20 10:39:30;;;;;;;2.90;1.60;;;12.40;1.00;;;;;;4997712;28;20454;-71
2023/11/20 10:41:57;;;;;;;4.27;1.70;;;12.50;1.00;;;;;;5015499;28;20423;-71
2023/11/20 10:44:25;;;;;;;5.33;2.67;;;12.50;1.00;;;;;;5015143;28;21081;-71
2023/11/20 10:46:51;;;;;;;5.60;2.67;;;12.70;1.00;;;;;;5015214;28;20437;-72
2023/11/20 10:49:20;;;;;;;6.03;2.10;;;12.70;1.00;;;;;;5015482;28;20526;-71
2023/11/20 10:51:56;;;;;;;11.07;2.73;;;12.60;1.00;;;;;;5014046;28;20464;-72
2023/11/20 10:54:30;;;;;;;3.97;2.10;;;12.80;1.00;;;;;;5015019;28;20429;-71
2023/11/20 10:57:04;;;;;;;7.50;3.37;;;12.80;1.00;;;;;;5014899;28;20423;-71
2023/11/20 10:59:35;;;;;;;5.93;1.70;;;12.60;1.00;;;;;;4997290;28;20462;-71
2023/11/20 11:02:06;;;;;;;6.70;2.43;;;12.70;1.00;;;;;;5014959;28;20425;-71
2023/11/20 11:04:33;;;;;;;6.50;2.40;;;12.60;1.00;;;;;;5015430;28;20419;-73
2023/11/20 11:07:03;;;;;;;5.90;1.80;;;12.70;1.00;;;;;;5014454;28;20461;-70
2023/11/20 11:09:30;;;;;;;4.33;2.00;;;12.60;1.00;;;;;;4996959;28;20973;-70
2023/11/20 11:11:58;;;;;;;6.40;1.60;;;12.30;1.00;;;;;;4996636;28;20553;-70
2023/11/20 11:14:24;;;;;;;4.10;1.40;;;12.20;1.00;;;;;;4996317;28;20514;-69
2023/11/20 11:17:09;;;;;;;10.80;2.40;;;12.30;1.00;;;;;;5014255;28;20512;-70
2023/11/20 11:19:48;;;;;;;5.70;2.23;;;12.30;1.00;;;;;;5014477;28;20514;-71
2023/11/20 11:22:25;;;;;;;4.23;2.20;;;12.30;1.00;;;;;;5014376;28;20464;-71
2023/11/20 11:24:56;;;;;;;5.10;1.67;;;12.60;1.00;;;;;;5014925;28;20727;-71
2023/11/20 11:27:31;;;;;;;6.33;2.00;;;13.00;1.00;;;;;;5014621;28;20418;-72
2023/11/20 11:29:59;;;;;;;4.67;2.20;;;13.30;1.00;;;;;;5015094;28;20418;-72
2023/11/20 11:32:41;;;;;;;3.03;2.13;;;13.40;1.00;;;;;;5017044;28;20491;-71
2023/11/20 11:35:29;;;;;;;3.97;1.80;;;13.40;1.00;;;;;;5019488;28;20458;-72
2023/11/20 11:38:19;;;;;;;4.13;2.07;;;13.40;1.00;;;;;;5000246;28;20461;-71
2023/11/20 11:40:53;;;;;;;6.20;2.20;;;13.30;1.00;;;;;;4996667;28;20860;-73
2023/11/20 11:43:25;;;;;;;3.00;2.10;;;13.20;1.00;;;;;;5014080;28;20428;-72
2023/11/20 11:45:52;;;;;;;4.23;1.93;;;13.40;1.00;;;;;;5014339;28;20418;-73
2023/11/20 11:48:18;;;;;;;4.73;1.97;;;13.60;1.00;;;;;;5013961;28;20453;-73
2023/11/20 11:50:47;;;;;;;3.50;1.80;;;13.60;1.00;;;;;;5013718;28;20858;-72
2023/11/20 11:53:13;;;;;;;4.10;2.57;;;13.50;1.00;;;;;;5013485;28;20426;-72
2023/11/20 11:55:42;;;;;;;5.53;2.17;;;13.60;1.00;;;;;;5013769;28;20782;-73
2023/11/20 11:58:14;;;;;;;3.60;1.27;;;13.50;1.00;;;;;;5013511;28;20719;-74
2023/11/20 12:00:40;;;;;;;6.07;1.53;;;13.40;1.00;;;;;;5014109;28;20441;-73
2023/11/20 12:03:08;;;;;;;4.37;1.40;;;13.20;1.00;;;;;;5013421;28;20794;-73
2023/11/20 12:05:54;;;;;;;4.43;0.93;;;13.20;1.00;;;;;;5013444;28;20254;-73
2023/11/20 12:08:24;;;;;;;5.90;1.60;;;13.00;1.00;;;;;;5014203;28;20442;-73
2023/11/20 12:10:51;;;;;;;3.80;1.57;;;12.70;1.00;;;;;;5013557;28;20750;-72
2023/11/20 12:13:22;;;;;;;3.40;1.40;;;12.30;4.50;;;;;;5012964;28;20516;-73
2023/11/20 12:16:03;;;;;;;5.33;1.00;;;12.20;6.70;;;;;;5013497;28;20804;-73
2023/11/20 12:18:36;;;;;;;4.30;1.77;;;12.20;6.20;;;;;;4995695;28;20438;-73
2023/11/20 12:21:09;;;;;;;7.60;2.00;;;12.10;7.80;;;;;;5013384;28;20462;-74
2023/11/20 12:23:36;;;;;;;6.97;2.67;;;11.90;8.60;;;;;;5013084;28;20425;-73
2023/11/20 12:26:04;;;;;;;2.67;1.13;;;11.90;8.30;;;;;;5012701;28;20416;-73
2023/11/20 12:28:33;;;;;;;5.33;2.50;;;12.10;9.00;;;;;;5013249;28;20431;-73
2023/11/20 12:31:04;;;;;;;3.03;1.83;;;12.20;6.90;;;;;;5013090;28;20458;-74
2023/11/20 12:33:35;;;;;;;4.23;2.30;;;12.20;8.60;;;;;;5012772;28;20859;-72
2023/11/20 12:36:01;;;;;;;4.57;1.60;;;12.50;8.10;;;;;;5013114;28;20944;-72
2023/11/20 12:38:34;;;;;;;3.17;1.60;;;12.60;7.40;;;;;;5012393;28;20451;-72
2023/11/20 12:41:03;;;;;;;3.77;1.70;;;12.60;7.00;;;;;;5011561;28;20426;-71
2023/11/20 12:43:29;;;;;;;4.67;2.10;;;12.80;7.10;;;;;;5012233;28;20419;-70
2023/11/20 12:45:56;;;;;;;4.53;1.53;;;13.00;4.90;;;;;;5012763;28;20406;-73
2023/11/20 12:48:22;;;;;;;3.43;2.20;;;13.40;3.10;;;;;;5011798;28;20959;-73
2023/11/20 12:50:51;;;;;;;4.67;1.53;;;13.50;2.70;;;;;;5011522;28;20422;-70
2023/11/20 12:53:18;;;;;;;3.20;1.73;;;13.50;3.10;;;;;;5010803;28;20425;-70